Allandale, Florida
Current Conditions -  °F | °C
As of 8:43 AM on Wednesday 26 Nov 2014 (Local Time) from KDAB Reporting Station
Light Rain Light Rain  
Wind Chill: 53°   Ceiling: 800
Heat Index: 53°   Visibility: 2.5mi
Dew Point: 51°   Wind: 9mph
Humidity: 93%   Direction: 300°WNW
Pressure: 30.07"   Gusts: NA
Location:  29.1486°N, 81.0301°W
Report Text: KDAB 261343Z 30008KT 2 1/2SM -RA BR BKN008 OVC038 12/11 A3007 RMK AO2 SFC VIS 4 P0001 T01170106
Loading
Personal Weather Stations






























Interactive Weather Map New forecast layout! Learn more

10-Day Weather Forecast

Advertisements
Track Severe Weather on mobile